createdAt,value
2018-07-05T00:00:53.165Z,17.81
2018-07-05T00:06:48.247Z,20.11
2018-07-05T00:12:43.201Z,20.81
2018-07-05T00:18:38.223Z,20.32
2018-07-05T00:24:33.177Z,23.19
2018-07-05T00:30:28.188Z,18.17
2018-07-05T00:36:23.208Z,22.15
2018-07-05T00:42:18.214Z,19.63
2018-07-05T00:48:13.223Z,17.55
2018-07-05T00:54:08.223Z,22.26
2018-07-05T01:00:03.721Z,17.86
2018-07-05T01:05:58.283Z,22.73
2018-07-05T01:11:53.212Z,22.16
2018-07-05T01:17:48.230Z,19.75
2018-07-05T01:23:43.246Z,22.76
2018-07-05T01:29:38.327Z,23.22
2018-07-05T01:35:33.300Z,23.47
2018-07-05T01:41:28.250Z,21.25
2018-07-05T01:47:23.262Z,21.81
2018-07-05T01:53:18.277Z,24.35
2018-07-05T01:59:13.238Z,21.93
2018-07-05T02:05:08.281Z,25.17
2018-07-05T02:11:03.259Z,23.62
2018-07-05T02:16:58.293Z,25.13
2018-07-05T02:22:53.248Z,22.74
2018-07-05T02:28:48.272Z,20.96
2018-07-05T02:34:43.254Z,24.64
2018-07-05T02:40:38.387Z,27.37
2018-07-05T02:46:33.274Z,26.86
2018-07-05T02:52:28.302Z,22.2
2018-07-05T02:58:23.326Z,21.59
2018-07-05T03:04:18.306Z,21.97
2018-07-05T03:10:13.315Z,25.78
2018-07-05T03:16:08.301Z,25.49
2018-07-05T03:22:03.335Z,23.12
2018-07-05T03:27:58.327Z,26.02
2018-07-05T03:33:53.362Z,23.58
2018-07-05T03:39:48.380Z,21.56
2018-07-05T03:45:43.367Z,23.44
2018-07-05T03:51:38.415Z,24.54
2018-07-05T03:57:33.327Z,26.88
2018-07-05T04:03:28.301Z,28.46
2018-07-05T04:09:23.337Z,22.67
2018-07-05T04:15:18.405Z,23.66
2018-07-05T04:21:13.407Z,27.01
2018-07-05T04:27:08.347Z,27.83
2018-07-05T04:33:03.353Z,21.11
2018-07-05T04:38:58.384Z,21.92
2018-07-05T04:44:53.355Z,21.42
2018-07-05T04:50:48.423Z,22.43
2018-07-05T04:56:43.387Z,23.03
2018-07-05T05:02:38.354Z,20.27
2018-07-05T05:08:33.515Z,22
2018-07-05T05:14:28.410Z,21.41
2018-07-05T05:20:23.434Z,29.18
2018-07-05T05:26:18.406Z,24.9
2018-07-05T05:32:13.478Z,22.93
2018-07-05T05:38:08.419Z,23.02
2018-07-05T05:44:03.379Z,21.75
2018-07-05T05:49:58.417Z,22.93
2018-07-05T05:55:53.451Z,21.33
2018-07-05T06:01:48.440Z,18.18
2018-07-05T06:07:43.448Z,19.38
2018-07-05T06:13:38.431Z,21.27
2018-07-05T06:19:33.407Z,20.15
2018-07-05T06:25:28.449Z,20.88
2018-07-05T06:31:23.413Z,19.43
2018-07-05T06:37:18.507Z,22.08
2018-07-05T06:43:13.433Z,20.31
2018-07-05T06:49:08.507Z,18.9
2018-07-05T06:55:03.540Z,20.07
2018-07-05T07:00:58.442Z,21.41
2018-07-05T07:06:53.465Z,17.87
2018-07-05T07:12:48.474Z,15.39
2018-07-05T07:18:43.499Z,15.49
2018-07-05T07:24:38.492Z,18.27
2018-07-05T07:30:33.538Z,15.2
2018-07-05T07:36:28.552Z,19.01
2018-07-05T07:42:23.522Z,14.44
2018-07-05T07:48:18.511Z,16.38
2018-07-05T07:54:13.586Z,14.49
2018-07-05T08:00:08.553Z,17.95
2018-07-05T08:06:03.484Z,16.9
2018-07-05T08:11:58.482Z,18.26
2018-07-05T08:17:53.529Z,17.55
2018-07-05T08:23:48.506Z,16.97
2018-07-05T08:29:43.537Z,15.42
2018-07-05T08:35:38.518Z,11.43
2018-07-05T08:41:33.545Z,11.29
2018-07-05T08:47:28.528Z,12.85
2018-07-05T08:53:23.590Z,13.14
2018-07-05T08:59:18.593Z,13.06
2018-07-05T09:05:13.578Z,9.55
2018-07-05T09:11:08.555Z,8.75
2018-07-05T09:17:03.575Z,15.87
2018-07-05T09:22:58.599Z,11.08
2018-07-05T09:28:53.626Z,8.71
2018-07-05T09:34:48.577Z,10.2
2018-07-05T09:40:43.621Z,7.86
2018-07-05T09:46:38.575Z,9.44
2018-07-05T09:52:33.690Z,11.9
2018-07-05T09:58:28.597Z,8.57
2018-07-05T10:04:23.687Z,8.99
2018-07-05T10:10:18.677Z,8.03
2018-07-05T10:16:13.620Z,10.15
2018-07-05T10:22:08.589Z,12.25
2018-07-05T10:28:03.648Z,8.75
2018-07-05T10:33:58.650Z,9.2
2018-07-05T10:39:53.618Z,9.87
2018-07-05T10:45:48.630Z,7.99
2018-07-05T10:51:43.708Z,7.14
2018-07-05T10:57:38.667Z,9.83
2018-07-05T11:03:33.725Z,9.76
2018-07-05T11:09:28.691Z,6.99
2018-07-05T11:15:23.636Z,8.69
2018-07-05T11:21:18.678Z,7.75
2018-07-05T11:27:13.695Z,8.49
2018-07-05T11:33:08.670Z,6.22
2018-07-05T11:39:03.670Z,9.4
2018-07-05T11:44:58.694Z,6.97
2018-07-05T11:50:53.707Z,8.26
2018-07-05T11:56:48.754Z,6.43
2018-07-05T12:02:43.716Z,6.07
2018-07-05T12:08:38.732Z,7.2
2018-07-05T12:14:33.720Z,9.4
2018-07-05T12:20:28.804Z,5.93
2018-07-05T12:26:23.705Z,7.94
2018-07-05T12:32:18.755Z,5.94
2018-07-05T12:38:13.742Z,9.89
2018-07-05T12:44:08.721Z,9.34
2018-07-05T12:50:03.800Z,8.38
2018-07-05T12:55:58.746Z,7.73
2018-07-05T13:01:53.811Z,7.64
2018-07-05T13:07:48.774Z,9.81
2018-07-05T13:13:43.759Z,8.79
2018-07-05T13:19:38.777Z,10.1
2018-07-05T13:25:33.790Z,13.76
2018-07-05T13:31:28.830Z,12.58
2018-07-05T13:37:23.759Z,13.98
2018-07-05T13:43:18.780Z,10.14
2018-07-05T13:49:13.798Z,11.2
2018-07-05T13:55:08.792Z,12.39
2018-07-05T14:01:03.837Z,14.17
2018-07-05T14:06:58.796Z,15.81
2018-07-05T14:12:53.906Z,8.1
2018-07-05T14:18:48.831Z,12.13
2018-07-05T14:24:43.922Z,10.22
2018-07-05T14:30:38.900Z,10.62
2018-07-05T14:36:33.806Z,13.26
2018-07-05T14:42:28.841Z,14.15
2018-07-05T14:48:23.841Z,6.59
2018-07-05T14:54:18.847Z,12.39
2018-07-05T15:00:13.882Z,14.54
2018-07-05T15:06:08.847Z,11.71
2018-07-05T15:12:03.867Z,14.07
2018-07-05T15:17:58.844Z,8.76
2018-07-05T15:23:53.884Z,16.16
2018-07-05T15:29:48.941Z,8.19
2018-07-05T15:35:43.893Z,8.32
2018-07-05T15:41:38.957Z,9.79
2018-07-05T15:47:33.940Z,10.87
2018-07-05T15:53:28.867Z,8.53
2018-07-05T15:59:23.889Z,9.96
2018-07-05T16:05:18.877Z,11.09
2018-07-05T16:11:13.905Z,7.67
2018-07-05T16:17:08.886Z,9.14
2018-07-05T16:23:03.910Z,7.15
2018-07-05T16:28:58.923Z,7.9
2018-07-05T16:34:53.928Z,8.33
2018-07-05T16:40:48.925Z,9.12
2018-07-05T16:46:43.916Z,11.66
2018-07-05T16:52:38.925Z,9.34
2018-07-05T16:58:33.944Z,12.89
2018-07-05T17:04:29.026Z,10.23
2018-07-05T17:10:23.955Z,9.89
2018-07-05T17:16:18.989Z,10.59
2018-07-05T17:22:13.989Z,11.01
2018-07-05T17:28:08.960Z,10.43
2018-07-05T17:34:04.027Z,12.19
2018-07-05T17:39:58.965Z,9.04
2018-07-05T17:45:53.977Z,11.98
2018-07-05T17:51:48.977Z,12.08
2018-07-05T17:57:43.985Z,13.23
2018-07-05T18:03:39.076Z,13.89
2018-07-05T18:09:33.973Z,12.35
2018-07-05T18:15:28.983Z,9.17
2018-07-05T18:21:24.003Z,13.87
2018-07-05T18:27:19.018Z,14.38
2018-07-05T18:33:14.013Z,13.39
2018-07-05T18:39:09.052Z,18.15
2018-07-05T18:45:04.372Z,14.51
2018-07-05T18:50:59.022Z,15.54
2018-07-05T18:56:54.036Z,13.49
2018-07-05T19:02:49.022Z,19.13
2018-07-05T19:08:44.040Z,17.53
2018-07-05T19:14:39.058Z,15.79
2018-07-05T19:20:34.068Z,15.85
2018-07-05T19:26:29.040Z,16.87
2018-07-05T19:32:24.018Z,16.07
2018-07-05T19:38:19.048Z,19.19
2018-07-05T19:44:14.821Z,15.01
2018-07-05T19:50:09.834Z,16.74
2018-07-05T19:56:04.621Z,17.97
2018-07-05T20:01:59.077Z,23.8
2018-07-05T20:07:54.052Z,21.46
2018-07-05T20:13:49.108Z,14.81
2018-07-05T20:19:44.128Z,19.24
2018-07-05T20:25:39.128Z,20.8
2018-07-05T20:31:34.088Z,18.63
2018-07-05T20:37:29.060Z,19.75
2018-07-05T20:43:24.158Z,18.72
2018-07-05T20:49:19.117Z,17.05
2018-07-05T20:55:14.129Z,24.47
2018-07-05T21:01:09.116Z,18.66
2018-07-05T21:07:04.127Z,20.5
2018-07-05T21:12:59.112Z,23.07
2018-07-05T21:18:54.129Z,19.5
2018-07-05T21:24:49.132Z,18.56
2018-07-05T21:30:44.136Z,17.75
2018-07-05T21:36:39.140Z,19.13
2018-07-05T21:42:34.126Z,21.91
2018-07-05T21:48:29.162Z,25.86
2018-07-05T21:54:24.176Z,25.95
2018-07-05T22:00:19.120Z,26.67
2018-07-05T22:06:14.134Z,23.83
2018-07-05T22:12:09.158Z,26.93
2018-07-05T22:18:04.166Z,25.94
2018-07-05T22:23:59.179Z,22.2
2018-07-05T22:29:54.230Z,23.74
2018-07-05T22:35:49.195Z,19.35
2018-07-05T22:41:44.172Z,17.98
2018-07-05T22:47:39.178Z,21.02
2018-07-05T22:53:34.215Z,21.37
2018-07-05T22:59:29.224Z,21.03
2018-07-05T23:05:24.165Z,23.54
2018-07-05T23:11:19.206Z,22.53
2018-07-05T23:17:14.199Z,22.22
2018-07-05T23:23:09.255Z,23.23
2018-07-05T23:29:04.205Z,23.58
2018-07-05T23:34:59.196Z,22.27
2018-07-05T23:40:54.208Z,23.65
2018-07-05T23:46:49.238Z,23.08
2018-07-05T23:52:44.222Z,22.67
2018-07-05T23:58:39.231Z,22.73
